sensor_id;sensor_type;location;lat;lon;timestamp;P1;durP1;ratioP1;P2;durP2;ratioP2
10387;SDS011;5240;51.128;4.566;2023-06-19T00:01:33;7.45;;;3.90;;
10387;SDS011;5240;51.128;4.566;2023-06-19T00:04:02;5.65;;;4.00;;
10387;SDS011;5240;51.128;4.566;2023-06-19T00:06:29;4.10;;;3.70;;
10387;SDS011;5240;51.128;4.566;2023-06-19T00:08:57;4.93;;;3.83;;
10387;SDS011;5240;51.128;4.566;2023-06-19T00:11:24;5.38;;;3.70;;
10387;SDS011;5240;51.128;4.566;2023-06-19T00:13:51;5.00;;;3.80;;
10387;SDS011;5240;51.128;4.566;2023-06-19T00:16:19;3.78;;;3.47;;
10387;SDS011;5240;51.128;4.566;2023-06-19T00:18:46;4.07;;;3.65;;
10387;SDS011;5240;51.128;4.566;2023-06-19T00:21:15;4.05;;;3.60;;
10387;SDS011;5240;51.128;4.566;2023-06-19T00:23:42;4.00;;;3.33;;
10387;SDS011;5240;51.128;4.566;2023-06-19T00:26:09;4.20;;;3.80;;
10387;SDS011;5240;51.128;4.566;2023-06-19T00:28:40;5.28;;;3.70;;
10387;SDS011;5240;51.128;4.566;2023-06-19T00:31:09;4.28;;;3.42;;
10387;SDS011;5240;51.128;4.566;2023-06-19T00:33:38;3.70;;;3.40;;
10387;SDS011;5240;51.128;4.566;2023-06-19T00:36:08;4.25;;;3.35;;
10387;SDS011;5240;51.128;4.566;2023-06-19T00:38:37;3.75;;;3.33;;
10387;SDS011;5240;51.128;4.566;2023-06-19T00:41:04;4.70;;;3.55;;
10387;SDS011;5240;51.128;4.566;2023-06-19T00:43:32;3.47;;;3.13;;
10387;SDS011;5240;51.128;4.566;2023-06-19T00:45:59;4.07;;;3.17;;
10387;SDS011;5240;51.128;4.566;2023-06-19T00:48:27;3.33;;;3.03;;
10387;SDS011;5240;51.128;4.566;2023-06-19T00:50:54;4.32;;;3.28;;
10387;SDS011;5240;51.128;4.566;2023-06-19T00:53:22;4.50;;;3.10;;
10387;SDS011;5240;51.128;4.566;2023-06-19T00:55:51;3.47;;;2.88;;
10387;SDS011;5240;51.128;4.566;2023-06-19T00:58:19;3.33;;;3.03;;
10387;SDS011;5240;51.128;4.566;2023-06-19T01:00:47;3.30;;;3.00;;
10387;SDS011;5240;51.128;4.566;2023-06-19T01:03:14;3.30;;;3.00;;
10387;SDS011;5240;51.128;4.566;2023-06-19T01:05:42;3.72;;;3.10;;
10387;SDS011;5240;51.128;4.566;2023-06-19T01:08:10;3.10;;;2.88;;
10387;SDS011;5240;51.128;4.566;2023-06-19T01:10:40;5.40;;;3.17;;
10387;SDS011;5240;51.128;4.566;2023-06-19T01:13:12;5.38;;;3.28;;
10387;SDS011;5240;51.128;4.566;2023-06-19T01:15:42;3.28;;;2.97;;
10387;SDS011;5240;51.128;4.566;2023-06-19T01:18:09;3.65;;;2.85;;
10387;SDS011;5240;51.128;4.566;2023-06-19T01:20:37;4.35;;;2.90;;
10387;SDS011;5240;51.128;4.566;2023-06-19T01:23:07;4.00;;;3.38;;
10387;SDS011;5240;51.128;4.566;2023-06-19T01:25:35;4.40;;;3.15;;
10387;SDS011;5240;51.128;4.566;2023-06-19T01:28:02;4.63;;;3.50;;
10387;SDS011;5240;51.128;4.566;2023-06-19T01:30:31;3.40;;;3.08;;
10387;SDS011;5240;51.128;4.566;2023-06-19T01:32:58;4.55;;;3.13;;
10387;SDS011;5240;51.128;4.566;2023-06-19T01:35:28;4.40;;;3.33;;
10387;SDS011;5240;51.128;4.566;2023-06-19T01:37:56;4.22;;;3.40;;
10387;SDS011;5240;51.128;4.566;2023-06-19T01:40:26;3.90;;;3.35;;
10387;SDS011;5240;51.128;4.566;2023-06-19T01:42:56;3.60;;;3.10;;
10387;SDS011;5240;51.128;4.566;2023-06-19T01:45:26;4.35;;;3.20;;
10387;SDS011;5240;51.128;4.566;2023-06-19T01:47:53;4.35;;;3.42;;
10387;SDS011;5240;51.128;4.566;2023-06-19T01:50:21;4.05;;;3.65;;
10387;SDS011;5240;51.128;4.566;2023-06-19T01:52:48;4.22;;;3.83;;
10387;SDS011;5240;51.128;4.566;2023-06-19T01:55:15;4.10;;;3.70;;
10387;SDS011;5240;51.128;4.566;2023-06-19T01:57:44;4.07;;;3.65;;
10387;SDS011;5240;51.128;4.566;2023-06-19T02:00:12;4.97;;;3.50;;
10387;SDS011;5240;51.128;4.566;2023-06-19T02:02:39;4.60;;;3.80;;
10387;SDS011;5240;51.128;4.566;2023-06-19T02:05:07;5.25;;;3.65;;
10387;SDS011;5240;51.128;4.566;2023-06-19T02:07:34;4.90;;;3.85;;
10387;SDS011;5240;51.128;4.566;2023-06-19T02:10:02;6.35;;;4.05;;
10387;SDS011;5240;51.128;4.566;2023-06-19T02:12:32;4.50;;;3.92;;
10387;SDS011;5240;51.128;4.566;2023-06-19T02:15:01;4.43;;;3.85;;
10387;SDS011;5240;51.128;4.566;2023-06-19T02:17:28;4.75;;;3.88;;
10387;SDS011;5240;51.128;4.566;2023-06-19T02:19:55;9.88;;;3.88;;
10387;SDS011;5240;51.128;4.566;2023-06-19T02:22:23;4.80;;;4.28;;
10387;SDS011;5240;51.128;4.566;2023-06-19T02:24:50;5.07;;;4.00;;
10387;SDS011;5240;51.128;4.566;2023-06-19T02:27:17;6.07;;;4.40;;
10387;SDS011;5240;51.128;4.566;2023-06-19T02:29:45;6.68;;;4.55;;
10387;SDS011;5240;51.128;4.566;2023-06-19T02:32:13;4.78;;;4.38;;
10387;SDS011;5240;51.128;4.566;2023-06-19T02:34:43;6.40;;;4.38;;
10387;SDS011;5240;51.128;4.566;2023-06-19T02:37:10;6.22;;;4.07;;
10387;SDS011;5240;51.128;4.566;2023-06-19T02:39:37;5.65;;;4.10;;
10387;SDS011;5240;51.128;4.566;2023-06-19T02:42:05;4.85;;;4.25;;
10387;SDS011;5240;51.128;4.566;2023-06-19T02:44:32;5.22;;;4.25;;
10387;SDS011;5240;51.128;4.566;2023-06-19T02:46:59;5.57;;;4.60;;
10387;SDS011;5240;51.128;4.566;2023-06-19T02:49:28;6.90;;;4.20;;
10387;SDS011;5240;51.128;4.566;2023-06-19T02:51:55;4.72;;;4.32;;
10387;SDS011;5240;51.128;4.566;2023-06-19T02:54:23;8.50;;;4.38;;
10387;SDS011;5240;51.128;4.566;2023-06-19T02:56:50;8.50;;;4.60;;
10387;SDS011;5240;51.128;4.566;2023-06-19T02:59:17;7.57;;;4.57;;
10387;SDS011;5240;51.128;4.566;2023-06-19T03:01:44;5.82;;;4.65;;
10387;SDS011;5240;51.128;4.566;2023-06-19T03:04:12;5.88;;;4.78;;
10387;SDS011;5240;51.128;4.566;2023-06-19T03:06:41;5.65;;;4.80;;
10387;SDS011;5240;51.128;4.566;2023-06-19T03:09:08;5.63;;;5.00;;
10387;SDS011;5240;51.128;4.566;2023-06-19T03:11:38;5.72;;;4.95;;
10387;SDS011;5240;51.128;4.566;2023-06-19T03:14:05;7.70;;;5.10;;
10387;SDS011;5240;51.128;4.566;2023-06-19T03:16:34;10.90;;;5.80;;
10387;SDS011;5240;51.128;4.566;2023-06-19T03:19:01;9.38;;;5.30;;
10387;SDS011;5240;51.128;4.566;2023-06-19T03:21:28;8.18;;;5.30;;
10387;SDS011;5240;51.128;4.566;2023-06-19T03:23:57;7.25;;;5.15;;
10387;SDS011;5240;51.128;4.566;2023-06-19T03:26:25;7.43;;;4.90;;
10387;SDS011;5240;51.128;4.566;2023-06-19T03:28:52;6.05;;;5.28;;
10387;SDS011;5240;51.128;4.566;2023-06-19T03:31:19;6.57;;;5.13;;
10387;SDS011;5240;51.128;4.566;2023-06-19T03:33:46;6.00;;;5.35;;
10387;SDS011;5240;51.128;4.566;2023-06-19T03:36:14;7.28;;;5.85;;
10387;SDS011;5240;51.128;4.566;2023-06-19T03:38:41;9.68;;;6.32;;
10387;SDS011;5240;51.128;4.566;2023-06-19T03:41:09;8.15;;;5.72;;
10387;SDS011;5240;51.128;4.566;2023-06-19T03:43:37;7.25;;;5.55;;
10387;SDS011;5240;51.128;4.566;2023-06-19T03:46:04;8.57;;;5.85;;
10387;SDS011;5240;51.128;4.566;2023-06-19T03:48:32;6.03;;;5.43;;
10387;SDS011;5240;51.128;4.566;2023-06-19T03:50:59;5.38;;;4.65;;
10387;SDS011;5240;51.128;4.566;2023-06-19T03:53:26;6.05;;;5.30;;
10387;SDS011;5240;51.128;4.566;2023-06-19T03:55:54;5.32;;;4.88;;
10387;SDS011;5240;51.128;4.566;2023-06-19T03:58:22;5.40;;;4.90;;
10387;SDS011;5240;51.128;4.566;2023-06-19T04:00:50;6.55;;;5.20;;
10387;SDS011;5240;51.128;4.566;2023-06-19T04:03:18;9.23;;;4.97;;
10387;SDS011;5240;51.128;4.566;2023-06-19T04:05:45;6.43;;;4.90;;
10387;SDS011;5240;51.128;4.566;2023-06-19T04:08:12;6.60;;;6.00;;
10387;SDS011;5240;51.128;4.566;2023-06-19T04:10:39;5.70;;;5.20;;
10387;SDS011;5240;51.128;4.566;2023-06-19T04:13:07;6.03;;;4.68;;
10387;SDS011;5240;51.128;4.566;2023-06-19T04:15:36;7.90;;;5.95;;
10387;SDS011;5240;51.128;4.566;2023-06-19T04:18:03;6.10;;;5.35;;
10387;SDS011;5240;51.128;4.566;2023-06-19T04:20:30;7.97;;;5.53;;
10387;SDS011;5240;51.128;4.566;2023-06-19T04:22:58;8.00;;;5.97;;
10387;SDS011;5240;51.128;4.566;2023-06-19T04:25:26;7.60;;;6.47;;
10387;SDS011;5240;51.128;4.566;2023-06-19T04:27:53;6.97;;;6.28;;
10387;SDS011;5240;51.128;4.566;2023-06-19T04:30:20;7.00;;;6.30;;
10387;SDS011;5240;51.128;4.566;2023-06-19T04:32:49;6.95;;;6.22;;
10387;SDS011;5240;51.128;4.566;2023-06-19T04:35:18;8.98;;;5.80;;
10387;SDS011;5240;51.128;4.566;2023-06-19T04:37:45;6.15;;;5.45;;
10387;SDS011;5240;51.128;4.566;2023-06-19T04:40:14;6.75;;;5.75;;
10387;SDS011;5240;51.128;4.566;2023-06-19T04:42:41;11.68;;;5.72;;
10387;SDS011;5240;51.128;4.566;2023-06-19T04:45:08;8.00;;;5.85;;
10387;SDS011;5240;51.128;4.566;2023-06-19T04:47:36;7.43;;;5.60;;
10387;SDS011;5240;51.128;4.566;2023-06-19T04:50:06;6.32;;;5.65;;
10387;SDS011;5240;51.128;4.566;2023-06-19T04:52:34;8.27;;;5.53;;
10387;SDS011;5240;51.128;4.566;2023-06-19T04:55:02;5.70;;;5.10;;
10387;SDS011;5240;51.128;4.566;2023-06-19T04:57:29;5.95;;;5.20;;
10387;SDS011;5240;51.128;4.566;2023-06-19T04:59:57;6.80;;;6.15;;
10387;SDS011;5240;51.128;4.566;2023-06-19T05:02:24;6.13;;;5.53;;
10387;SDS011;5240;51.128;4.566;2023-06-19T05:04:51;6.40;;;5.65;;
10387;SDS011;5240;51.128;4.566;2023-06-19T05:07:20;9.77;;;6.63;;
10387;SDS011;5240;51.128;4.566;2023-06-19T05:09:47;6.55;;;5.95;;
10387;SDS011;5240;51.128;4.566;2023-06-19T05:12:15;7.03;;;6.38;;
10387;SDS011;5240;51.128;4.566;2023-06-19T05:14:42;6.82;;;5.70;;
10387;SDS011;5240;51.128;4.566;2023-06-19T05:17:09;7.88;;;6.32;;
10387;SDS011;5240;51.128;4.566;2023-06-19T05:19:36;6.60;;;5.75;;
10387;SDS011;5240;51.128;4.566;2023-06-19T05:22:04;9.18;;;6.53;;
10387;SDS011;5240;51.128;4.566;2023-06-19T05:24:33;8.07;;;6.70;;
10387;SDS011;5240;51.128;4.566;2023-06-19T05:27:00;12.38;;;7.47;;
10387;SDS011;5240;51.128;4.566;2023-06-19T05:29:27;8.70;;;7.32;;
10387;SDS011;5240;51.128;4.566;2023-06-19T05:31:56;10.18;;;6.63;;
10387;SDS011;5240;51.128;4.566;2023-06-19T05:34:23;13.85;;;7.13;;
10387;SDS011;5240;51.128;4.566;2023-06-19T05:36:50;8.07;;;7.20;;
10387;SDS011;5240;51.128;4.566;2023-06-19T05:39:17;9.00;;;7.50;;
10387;SDS011;5240;51.128;4.566;2023-06-19T05:41:46;8.85;;;7.90;;
10387;SDS011;5240;51.128;4.566;2023-06-19T05:44:13;8.88;;;7.25;;
10387;SDS011;5240;51.128;4.566;2023-06-19T05:46:42;8.63;;;7.70;;
10387;SDS011;5240;51.128;4.566;2023-06-19T05:49:09;9.15;;;8.25;;
10387;SDS011;5240;51.128;4.566;2023-06-19T05:51:36;16.05;;;8.52;;
10387;SDS011;5240;51.128;4.566;2023-06-19T05:54:04;10.23;;;8.25;;
10387;SDS011;5240;51.128;4.566;2023-06-19T05:56:31;8.43;;;7.53;;
10387;SDS011;5240;51.128;4.566;2023-06-19T05:59:00;10.88;;;8.60;;
10387;SDS011;5240;51.128;4.566;2023-06-19T06:01:27;16.02;;;8.30;;
10387;SDS011;5240;51.128;4.566;2023-06-19T06:03:56;9.52;;;8.60;;
10387;SDS011;5240;51.128;4.566;2023-06-19T06:06:23;9.70;;;8.57;;
10387;SDS011;5240;51.128;4.566;2023-06-19T06:08:53;10.05;;;8.95;;
10387;SDS011;5240;51.128;4.566;2023-06-19T06:11:21;13.30;;;8.93;;
10387;SDS011;5240;51.128;4.566;2023-06-19T06:13:48;9.85;;;8.45;;
10387;SDS011;5240;51.128;4.566;2023-06-19T06:16:18;10.02;;;9.05;;
10387;SDS011;5240;51.128;4.566;2023-06-19T06:18:45;15.57;;;9.48;;
10387;SDS011;5240;51.128;4.566;2023-06-19T06:21:13;15.18;;;9.10;;
10387;SDS011;5240;51.128;4.566;2023-06-19T06:23:40;14.18;;;9.60;;
10387;SDS011;5240;51.128;4.566;2023-06-19T06:26:10;14.60;;;10.75;;
10387;SDS011;5240;51.128;4.566;2023-06-19T06:28:37;11.57;;;9.52;;
10387;SDS011;5240;51.128;4.566;2023-06-19T06:31:05;11.13;;;10.10;;
10387;SDS011;5240;51.128;4.566;2023-06-19T06:33:34;11.50;;;10.40;;
10387;SDS011;5240;51.128;4.566;2023-06-19T06:36:01;15.02;;;10.20;;
10387;SDS011;5240;51.128;4.566;2023-06-19T06:38:29;13.15;;;9.80;;
10387;SDS011;5240;51.128;4.566;2023-06-19T06:40:56;10.88;;;9.75;;
10387;SDS011;5240;51.128;4.566;2023-06-19T06:43:24;10.30;;;9.40;;
10387;SDS011;5240;51.128;4.566;2023-06-19T06:45:51;12.90;;;10.55;;
10387;SDS011;5240;51.128;4.566;2023-06-19T06:48:19;13.13;;;10.00;;
10387;SDS011;5240;51.128;4.566;2023-06-19T06:50:47;11.15;;;10.05;;
10387;SDS011;5240;51.128;4.566;2023-06-19T06:53:15;12.93;;;10.18;;
10387;SDS011;5240;51.128;4.566;2023-06-19T06:55:42;11.82;;;10.57;;
10387;SDS011;5240;51.128;4.566;2023-06-19T06:58:09;11.25;;;10.05;;
10387;SDS011;5240;51.128;4.566;2023-06-19T07:00:39;12.02;;;9.68;;
10387;SDS011;5240;51.128;4.566;2023-06-19T07:03:06;11.85;;;9.73;;
10387;SDS011;5240;51.128;4.566;2023-06-19T07:05:34;13.10;;;10.57;;
10387;SDS011;5240;51.128;4.566;2023-06-19T07:08:03;11.10;;;9.82;;
10387;SDS011;5240;51.128;4.566;2023-06-19T07:10:30;14.60;;;9.50;;
10387;SDS011;5240;51.128;4.566;2023-06-19T07:12:57;12.18;;;9.10;;
10387;SDS011;5240;51.128;4.566;2023-06-19T07:15:25;10.40;;;9.32;;
10387;SDS011;5240;51.128;4.566;2023-06-19T07:17:52;12.25;;;9.63;;
10387;SDS011;5240;51.128;4.566;2023-06-19T07:20:19;12.57;;;9.52;;
10387;SDS011;5240;51.128;4.566;2023-06-19T07:22:47;11.20;;;10.05;;
10387;SDS011;5240;51.128;4.566;2023-06-19T07:25:16;11.88;;;9.90;;
10387;SDS011;5240;51.128;4.566;2023-06-19T07:27:43;14.88;;;9.73;;
10387;SDS011;5240;51.128;4.566;2023-06-19T07:30:11;10.75;;;9.70;;
10387;SDS011;5240;51.128;4.566;2023-06-19T07:32:39;11.43;;;9.82;;
10387;SDS011;5240;51.128;4.566;2023-06-19T07:35:06;11.20;;;10.07;;
10387;SDS011;5240;51.128;4.566;2023-06-19T07:37:34;11.43;;;9.45;;
10387;SDS011;5240;51.128;4.566;2023-06-19T07:40:01;10.63;;;9.50;;
10387;SDS011;5240;51.128;4.566;2023-06-19T07:42:30;10.30;;;9.13;;
10387;SDS011;5240;51.128;4.566;2023-06-19T07:44:58;9.95;;;8.88;;
10387;SDS011;5240;51.128;4.566;2023-06-19T07:47:26;10.60;;;9.10;;
10387;SDS011;5240;51.128;4.566;2023-06-19T07:49:53;11.50;;;9.20;;
10387;SDS011;5240;51.128;4.566;2023-06-19T07:52:21;11.90;;;9.98;;
10387;SDS011;5240;51.128;4.566;2023-06-19T07:54:50;14.27;;;8.95;;
10387;SDS011;5240;51.128;4.566;2023-06-19T07:57:18;16.02;;;10.27;;
10387;SDS011;5240;51.128;4.566;2023-06-19T07:59:49;12.85;;;9.68;;
10387;SDS011;5240;51.128;4.566;2023-06-19T08:02:17;13.35;;;10.10;;
10387;SDS011;5240;51.128;4.566;2023-06-19T08:04:44;13.43;;;8.90;;
10387;SDS011;5240;51.128;4.566;2023-06-19T08:07:12;10.65;;;9.00;;
10387;SDS011;5240;51.128;4.566;2023-06-19T08:09:41;8.85;;;7.95;;
10387;SDS011;5240;51.128;4.566;2023-06-19T08:12:09;9.25;;;8.20;;
10387;SDS011;5240;51.128;4.566;2023-06-19T08:14:37;12.23;;;9.05;;
10387;SDS011;5240;51.128;4.566;2023-06-19T08:17:09;11.57;;;8.90;;
10387;SDS011;5240;51.128;4.566;2023-06-19T08:19:57;12.60;;;9.05;;
10387;SDS011;5240;51.128;4.566;2023-06-19T08:22:24;10.32;;;8.95;;
10387;SDS011;5240;51.128;4.566;2023-06-19T08:24:52;11.07;;;9.32;;
10387;SDS011;5240;51.128;4.566;2023-06-19T08:27:51;9.23;;;8.30;;
10387;SDS011;5240;51.128;4.566;2023-06-19T08:30:18;11.70;;;9.25;;
10387;SDS011;5240;51.128;4.566;2023-06-19T08:32:46;20.38;;;9.73;;
10387;SDS011;5240;51.128;4.566;2023-06-19T08:35:14;12.18;;;9.35;;
10387;SDS011;5240;51.128;4.566;2023-06-19T08:37:41;10.55;;;8.85;;
10387;SDS011;5240;51.128;4.566;2023-06-19T08:40:09;11.23;;;8.32;;
10387;SDS011;5240;51.128;4.566;2023-06-19T08:42:37;10.70;;;8.13;;
10387;SDS011;5240;51.128;4.566;2023-06-19T08:45:07;9.50;;;8.45;;
10387;SDS011;5240;51.128;4.566;2023-06-19T08:47:34;10.77;;;8.73;;
10387;SDS011;5240;51.128;4.566;2023-06-19T08:50:02;13.85;;;9.25;;
10387;SDS011;5240;51.128;4.566;2023-06-19T08:52:31;11.23;;;8.43;;
10387;SDS011;5240;51.128;4.566;2023-06-19T08:55:15;11.02;;;7.80;;
10387;SDS011;5240;51.128;4.566;2023-06-19T08:57:42;10.20;;;8.13;;
10387;SDS011;5240;51.128;4.566;2023-06-19T09:00:11;10.43;;;7.32;;
10387;SDS011;5240;51.128;4.566;2023-06-19T09:02:50;10.82;;;8.43;;
10387;SDS011;5240;51.128;4.566;2023-06-19T09:05:18;9.85;;;8.85;;
10387;SDS011;5240;51.128;4.566;2023-06-19T09:07:53;12.85;;;8.52;;
10387;SDS011;5240;51.128;4.566;2023-06-19T09:10:21;9.07;;;7.63;;
10387;SDS011;5240;51.128;4.566;2023-06-19T09:12:58;10.70;;;8.52;;
10387;SDS011;5240;51.128;4.566;2023-06-19T09:15:28;9.73;;;7.63;;
10387;SDS011;5240;51.128;4.566;2023-06-19T09:18:00;10.43;;;9.13;;
10387;SDS011;5240;51.128;4.566;2023-06-19T09:20:28;11.40;;;8.15;;
10387;SDS011;5240;51.128;4.566;2023-06-19T09:22:56;11.40;;;8.90;;
10387;SDS011;5240;51.128;4.566;2023-06-19T09:25:25;11.57;;;9.07;;
10387;SDS011;5240;51.128;4.566;2023-06-19T09:27:53;10.48;;;8.88;;
10387;SDS011;5240;51.128;4.566;2023-06-19T09:30:20;14.10;;;8.80;;
10387;SDS011;5240;51.128;4.566;2023-06-19T09:32:49;10.25;;;9.15;;
10387;SDS011;5240;51.128;4.566;2023-06-19T09:35:17;11.65;;;8.85;;
10387;SDS011;5240;51.128;4.566;2023-06-19T09:37:48;9.75;;;8.75;;
10387;SDS011;5240;51.128;4.566;2023-06-19T09:40:16;11.88;;;8.45;;
10387;SDS011;5240;51.128;4.566;2023-06-19T09:42:44;8.82;;;7.88;;
10387;SDS011;5240;51.128;4.566;2023-06-19T09:45:16;10.93;;;8.70;;
10387;SDS011;5240;51.128;4.566;2023-06-19T09:47:46;10.00;;;8.38;;
10387;SDS011;5240;51.128;4.566;2023-06-19T09:50:18;10.35;;;8.43;;
10387;SDS011;5240;51.128;4.566;2023-06-19T09:52:45;9.30;;;8.10;;
10387;SDS011;5240;51.128;4.566;2023-06-19T09:55:13;12.07;;;8.30;;
10387;SDS011;5240;51.128;4.566;2023-06-19T09:57:42;10.88;;;9.85;;
10387;SDS011;5240;51.128;4.566;2023-06-19T10:00:13;11.25;;;9.95;;
10387;SDS011;5240;51.128;4.566;2023-06-19T10:02:44;12.82;;;8.85;;
10387;SDS011;5240;51.128;4.566;2023-06-19T10:05:12;12.98;;;8.50;;
10387;SDS011;5240;51.128;4.566;2023-06-19T10:07:42;12.70;;;10.23;;
10387;SDS011;5240;51.128;4.566;2023-06-19T10:10:11;11.07;;;9.75;;
10387;SDS011;5240;51.128;4.566;2023-06-19T10:12:40;10.35;;;9.25;;
10387;SDS011;5240;51.128;4.566;2023-06-19T10:15:13;13.07;;;8.50;;
10387;SDS011;5240;51.128;4.566;2023-06-19T10:17:45;11.50;;;8.52;;
10387;SDS011;5240;51.128;4.566;2023-06-19T10:20:20;9.30;;;8.32;;
10387;SDS011;5240;51.128;4.566;2023-06-19T10:22:55;12.40;;;8.70;;
10387;SDS011;5240;51.128;4.566;2023-06-19T10:25:23;11.02;;;9.65;;
10387;SDS011;5240;51.128;4.566;2023-06-19T10:27:51;10.77;;;9.65;;
10387;SDS011;5240;51.128;4.566;2023-06-19T10:30:19;13.23;;;10.20;;
10387;SDS011;5240;51.128;4.566;2023-06-19T10:32:47;10.45;;;9.05;;
10387;SDS011;5240;51.128;4.566;2023-06-19T10:35:15;9.60;;;8.60;;
10387;SDS011;5240;51.128;4.566;2023-06-19T10:37:42;11.98;;;10.77;;
10387;SDS011;5240;51.128;4.566;2023-06-19T10:40:11;10.05;;;8.65;;
10387;SDS011;5240;51.128;4.566;2023-06-19T10:42:39;9.20;;;8.30;;
10387;SDS011;5240;51.128;4.566;2023-06-19T10:45:07;9.93;;;8.70;;
10387;SDS011;5240;51.128;4.566;2023-06-19T10:47:35;10.48;;;8.35;;
10387;SDS011;5240;51.128;4.566;2023-06-19T10:50:03;11.02;;;8.50;;
10387;SDS011;5240;51.128;4.566;2023-06-19T10:52:30;10.75;;;8.52;;
10387;SDS011;5240;51.128;4.566;2023-06-19T10:54:58;9.70;;;8.02;;
10387;SDS011;5240;51.128;4.566;2023-06-19T10:57:30;9.10;;;8.18;;
10387;SDS011;5240;51.128;4.566;2023-06-19T10:59:57;8.55;;;7.72;;
10387;SDS011;5240;51.128;4.566;2023-06-19T11:02:25;8.80;;;7.57;;
10387;SDS011;5240;51.128;4.566;2023-06-19T11:04:53;8.43;;;7.13;;
10387;SDS011;5240;51.128;4.566;2023-06-19T11:07:20;8.88;;;7.95;;
10387;SDS011;5240;51.128;4.566;2023-06-19T11:09:48;8.98;;;8.07;;
10387;SDS011;5240;51.128;4.566;2023-06-19T11:12:30;14.30;;;8.63;;
10387;SDS011;5240;51.128;4.566;2023-06-19T11:15:03;9.82;;;8.85;;
10387;SDS011;5240;51.128;4.566;2023-06-19T11:17:31;10.68;;;8.38;;
10387;SDS011;5240;51.128;4.566;2023-06-19T11:19:58;9.07;;;7.68;;
10387;SDS011;5240;51.128;4.566;2023-06-19T11:22:38;9.93;;;7.95;;
10387;SDS011;5240;51.128;4.566;2023-06-19T11:25:06;9.32;;;7.68;;
10387;SDS011;5240;51.128;4.566;2023-06-19T11:27:36;8.25;;;7.45;;
10387;SDS011;5240;51.128;4.566;2023-06-19T11:30:04;8.32;;;6.28;;
10387;SDS011;5240;51.128;4.566;2023-06-19T11:32:32;7.75;;;6.95;;
10387;SDS011;5240;51.128;4.566;2023-06-19T11:35:05;9.80;;;7.15;;
10387;SDS011;5240;51.128;4.566;2023-06-19T11:37:33;9.50;;;6.97;;
10387;SDS011;5240;51.128;4.566;2023-06-19T11:40:01;7.07;;;6.10;;
10387;SDS011;5240;51.128;4.566;2023-06-19T11:42:45;7.70;;;6.95;;
10387;SDS011;5240;51.128;4.566;2023-06-19T11:45:12;8.70;;;6.72;;
10387;SDS011;5240;51.128;4.566;2023-06-19T11:47:40;6.68;;;5.97;;
10387;SDS011;5240;51.128;4.566;2023-06-19T11:50:07;8.50;;;6.88;;
10387;SDS011;5240;51.128;4.566;2023-06-19T11:52:35;8.77;;;6.57;;
10387;SDS011;5240;51.128;4.566;2023-06-19T11:55:02;8.85;;;7.13;;
10387;SDS011;5240;51.128;4.566;2023-06-19T11:57:30;7.55;;;6.47;;
10387;SDS011;5240;51.128;4.566;2023-06-19T11:59:59;8.90;;;6.47;;
10387;SDS011;5240;51.128;4.566;2023-06-19T12:02:26;7.28;;;6.50;;
10387;SDS011;5240;51.128;4.566;2023-06-19T12:04:54;8.63;;;6.75;;
10387;SDS011;5240;51.128;4.566;2023-06-19T12:07:21;9.80;;;6.50;;
10387;SDS011;5240;51.128;4.566;2023-06-19T12:09:48;9.27;;;6.60;;
10387;SDS011;5240;51.128;4.566;2023-06-19T12:12:15;9.90;;;6.88;;
10387;SDS011;5240;51.128;4.566;2023-06-19T12:14:42;6.40;;;5.80;;
10387;SDS011;5240;51.128;4.566;2023-06-19T12:17:11;7.05;;;5.60;;
10387;SDS011;5240;51.128;4.566;2023-06-19T12:19:38;7.93;;;5.40;;
10387;SDS011;5240;51.128;4.566;2023-06-19T12:22:06;6.47;;;5.35;;
10387;SDS011;5240;51.128;4.566;2023-06-19T12:24:33;12.15;;;6.20;;
10387;SDS011;5240;51.128;4.566;2023-06-19T12:27:00;6.43;;;5.68;;
10387;SDS011;5240;51.128;4.566;2023-06-19T12:29:27;7.72;;;5.50;;
10387;SDS011;5240;51.128;4.566;2023-06-19T12:31:59;6.30;;;5.70;;
10387;SDS011;5240;51.128;4.566;2023-06-19T12:34:28;7.45;;;5.50;;
10387;SDS011;5240;51.128;4.566;2023-06-19T12:36:56;6.55;;;5.90;;
10387;SDS011;5240;51.128;4.566;2023-06-19T12:39:23;6.13;;;5.60;;
10387;SDS011;5240;51.128;4.566;2023-06-19T12:41:51;6.70;;;5.53;;
10387;SDS011;5240;51.128;4.566;2023-06-19T12:44:18;8.13;;;5.93;;
10387;SDS011;5240;51.128;4.566;2023-06-19T12:46:45;7.88;;;6.10;;
10387;SDS011;5240;51.128;4.566;2023-06-19T12:49:13;7.10;;;6.35;;
10387;SDS011;5240;51.128;4.566;2023-06-19T12:51:41;6.93;;;6.00;;
10387;SDS011;5240;51.128;4.566;2023-06-19T12:54:09;8.32;;;6.28;;
10387;SDS011;5240;51.128;4.566;2023-06-19T12:56:36;6.20;;;5.60;;
10387;SDS011;5240;51.128;4.566;2023-06-19T12:59:03;6.43;;;5.65;;
10387;SDS011;5240;51.128;4.566;2023-06-19T13:01:30;6.53;;;5.88;;
10387;SDS011;5240;51.128;4.566;2023-06-19T13:03:58;7.28;;;5.47;;
10387;SDS011;5240;51.128;4.566;2023-06-19T13:06:25;8.63;;;5.75;;
10387;SDS011;5240;51.128;4.566;2023-06-19T13:08:53;6.95;;;5.88;;
10387;SDS011;5240;51.128;4.566;2023-06-19T13:11:21;8.77;;;6.18;;
10387;SDS011;5240;51.128;4.566;2023-06-19T13:13:48;8.15;;;5.90;;
10387;SDS011;5240;51.128;4.566;2023-06-19T13:16:15;8.35;;;5.43;;
10387;SDS011;5240;51.128;4.566;2023-06-19T13:18:43;7.68;;;5.70;;
10387;SDS011;5240;51.128;4.566;2023-06-19T13:21:11;6.03;;;5.53;;
10387;SDS011;5240;51.128;4.566;2023-06-19T13:23:39;6.57;;;5.97;;
10387;SDS011;5240;51.128;4.566;2023-06-19T13:26:07;6.93;;;5.95;;
10387;SDS011;5240;51.128;4.566;2023-06-19T13:28:35;7.82;;;5.68;;
10387;SDS011;5240;51.128;4.566;2023-06-19T13:31:02;7.45;;;6.05;;
10387;SDS011;5240;51.128;4.566;2023-06-19T13:33:30;6.43;;;5.68;;
10387;SDS011;5240;51.128;4.566;2023-06-19T13:35:57;6.47;;;5.88;;
10387;SDS011;5240;51.128;4.566;2023-06-19T13:38:24;7.20;;;6.20;;
10387;SDS011;5240;51.128;4.566;2023-06-19T13:40:52;9.15;;;6.28;;
10387;SDS011;5240;51.128;4.566;2023-06-19T13:43:21;7.18;;;5.55;;
10387;SDS011;5240;51.128;4.566;2023-06-19T13:45:49;7.40;;;5.63;;
10387;SDS011;5240;51.128;4.566;2023-06-19T13:48:16;7.15;;;5.78;;
10387;SDS011;5240;51.128;4.566;2023-06-19T13:50:43;6.95;;;6.18;;
10387;SDS011;5240;51.128;4.566;2023-06-19T13:53:11;6.80;;;5.88;;
10387;SDS011;5240;51.128;4.566;2023-06-19T13:55:38;7.15;;;6.00;;
10387;SDS011;5240;51.128;4.566;2023-06-19T13:58:05;7.78;;;6.28;;
10387;SDS011;5240;51.128;4.566;2023-06-19T14:00:34;6.82;;;6.18;;
10387;SDS011;5240;51.128;4.566;2023-06-19T14:03:02;7.80;;;6.30;;
10387;SDS011;5240;51.128;4.566;2023-06-19T14:05:31;9.15;;;6.20;;
10387;SDS011;5240;51.128;4.566;2023-06-19T14:07:59;6.95;;;5.80;;
10387;SDS011;5240;51.128;4.566;2023-06-19T14:10:26;6.63;;;6.00;;
10387;SDS011;5240;51.128;4.566;2023-06-19T14:12:53;6.65;;;5.93;;
10387;SDS011;5240;51.128;4.566;2023-06-19T14:15:21;6.40;;;5.80;;
10387;SDS011;5240;51.128;4.566;2023-06-19T14:17:49;6.50;;;5.72;;
10387;SDS011;5240;51.128;4.566;2023-06-19T14:20:16;6.45;;;5.85;;
10387;SDS011;5240;51.128;4.566;2023-06-19T14:22:44;8.35;;;5.85;;
10387;SDS011;5240;51.128;4.566;2023-06-19T14:25:11;8.02;;;6.20;;
10387;SDS011;5240;51.128;4.566;2023-06-19T14:27:38;6.60;;;6.00;;
10387;SDS011;5240;51.128;4.566;2023-06-19T14:30:06;7.07;;;6.15;;
10387;SDS011;5240;51.128;4.566;2023-06-19T14:32:34;8.63;;;7.07;;
10387;SDS011;5240;51.128;4.566;2023-06-19T14:35:04;10.65;;;6.80;;
10387;SDS011;5240;51.128;4.566;2023-06-19T14:37:31;7.03;;;6.20;;
10387;SDS011;5240;51.128;4.566;2023-06-19T14:39:58;9.20;;;6.80;;
10387;SDS011;5240;51.128;4.566;2023-06-19T14:42:25;7.70;;;6.10;;
10387;SDS011;5240;51.128;4.566;2023-06-19T14:44:53;7.57;;;6.63;;
10387;SDS011;5240;51.128;4.566;2023-06-19T14:47:20;10.20;;;6.70;;
10387;SDS011;5240;51.128;4.566;2023-06-19T14:49:49;7.43;;;6.70;;
10387;SDS011;5240;51.128;4.566;2023-06-19T14:52:18;9.50;;;6.70;;
10387;SDS011;5240;51.128;4.566;2023-06-19T14:54:46;9.80;;;6.65;;
10387;SDS011;5240;51.128;4.566;2023-06-19T14:57:13;9.10;;;6.03;;
10387;SDS011;5240;51.128;4.566;2023-06-19T14:59:40;7.50;;;6.60;;
10387;SDS011;5240;51.128;4.566;2023-06-19T15:02:07;7.30;;;6.40;;